Time;durP1;ratioP1;P1;durP2;ratioP2;P2;SDS_P1;SDS_P2;PMS_P1;PMS_P2;Temp;Humidity;BMP_temperature;BMP_pressure;BME280_temperature;BME280_humidity;BME280_pressure;Samples;Min_cycle;Max_cycle;Signal;HPM_P1;HPM_P2
2021/09/09 00:00:26;;;;;;;;;;;17.30;99.90;;;;;;4985692;28;19926;-83
2021/09/09 00:02:53;;;;;;;;;;;17.40;99.90;;;;;;4987034;28;19926;-84
2021/09/09 00:05:19;;;;;;;;;;;17.20;99.90;;;;;;4989389;28;19926;-84
2021/09/09 00:07:46;;;;;;;;;;;17.20;99.90;;;;;;4976359;28;19926;-84
2021/09/09 00:10:13;;;;;;;;;;;17.10;99.90;;;;;;4981360;28;19926;-84
2021/09/09 00:12:41;;;;;;;;;;;17.20;99.90;;;;;;4989794;28;19929;-83
2021/09/09 00:15:08;;;;;;;;;;;17.20;99.90;;;;;;4973647;28;19934;-84
2021/09/09 00:17:36;;;;;;;;;;;17.10;99.90;;;;;;4976310;28;19926;-83
2021/09/09 00:20:03;;;;;;;;;;;17.10;99.90;;;;;;4983382;28;19926;-83
2021/09/09 00:22:30;;;;;;;;;;;17.20;99.90;;;;;;4977256;28;19936;-84
2021/09/09 00:24:56;;;;;;;;;;;17.10;99.90;;;;;;4981372;28;19926;-84
2021/09/09 00:27:23;;;;;;;;;;;17.10;99.90;;;;;;4977691;28;19926;-83
2021/09/09 00:29:50;;;;;;;;;;;17.10;99.90;;;;;;4975906;28;19930;-84
2021/09/09 00:32:16;;;;;;;;;;;17.00;99.90;;;;;;4977443;28;19926;-83
2021/09/09 00:34:44;;;;;;;;;;;17.00;99.90;;;;;;4974541;28;20029;-83
2021/09/09 00:37:11;;;;;;;;;;;17.00;99.90;;;;;;4979417;28;20349;-83
2021/09/09 00:39:38;;;;;;;;;;;17.00;99.90;;;;;;4984840;28;20009;-82
2021/09/09 00:42:04;;;;;;;;;;;17.00;99.90;;;;;;4980480;28;19940;-83
2021/09/09 00:44:31;;;;;;;;;;;17.00;99.90;;;;;;4983780;28;19934;-83
2021/09/09 00:47:02;;;;;;;;;;;17.40;99.90;;;;;;4980159;28;19926;-83
2021/09/09 00:49:29;;;;;;;;;;;16.90;99.90;;;;;;4980773;28;20369;-84
2021/09/09 00:51:57;;;;;;;;;;;16.90;99.90;;;;;;4980936;28;19963;-85
2021/09/09 00:54:23;;;;;;;;;;;16.90;99.90;;;;;;4977133;28;19925;-83
2021/09/09 00:56:50;;;;;;;;;;;16.80;99.90;;;;;;4980277;28;19936;-84
2021/09/09 00:59:17;;;;;;;;;;;17.10;99.90;;;;;;4979491;28;19926;-84
2021/09/09 01:01:44;;;;;;;;;;;16.80;99.90;;;;;;4974061;28;20431;-83
2021/09/09 01:04:10;;;;;;;;;;;16.80;99.90;;;;;;4978687;28;19956;-84
2021/09/09 01:06:37;;;;;;;;;;;16.70;99.90;;;;;;4975224;28;19937;-83
2021/09/09 01:09:05;;;;;;;;;;;16.70;99.90;;;;;;4980286;28;19926;-84
2021/09/09 01:11:32;;;;;;;;;;;16.70;99.90;;;;;;4978173;28;19933;-81
2021/09/09 01:14:04;;;;;;;;;;;16.70;99.90;;;;;;4985227;28;20278;-81
2021/09/09 01:16:31;;;;;;;;;;;16.60;99.90;;;;;;4985670;28;19927;-82
2021/09/09 01:18:58;;;;;;;;;;;16.80;99.90;;;;;;4981152;28;20711;-82
2021/09/09 01:21:25;;;;;;;;;;;16.80;99.90;;;;;;4974725;28;20409;-82
2021/09/09 01:23:54;;;;;;;;;;;16.70;99.90;;;;;;4978534;28;19932;-83
2021/09/09 01:26:22;;;;;;;;;;;16.70;99.90;;;;;;4973531;28;19930;-81
2021/09/09 01:28:49;;;;;;;;;;;16.60;99.90;;;;;;4972260;28;20517;-82
2021/09/09 01:31:16;;;;;;;;;;;16.70;99.90;;;;;;4989005;28;19932;-81
2021/09/09 01:33:43;;;;;;;;;;;16.60;99.90;;;;;;4985529;28;19934;-81
2021/09/09 01:36:09;;;;;;;;;;;16.60;99.90;;;;;;4976355;28;20247;-81
2021/09/09 01:38:36;;;;;;;;;;;16.70;99.90;;;;;;4977253;28;20191;-85
2021/09/09 01:41:03;;;;;;;;;;;16.70;99.90;;;;;;4976727;28;19926;-83
2021/09/09 01:43:32;;;;;;;;;;;16.70;99.90;;;;;;4977577;28;19933;-84
2021/09/09 01:45:58;;;;;;;;;;;16.70;99.90;;;;;;4978872;28;20195;-84
2021/09/09 01:48:25;;;;;;;;;;;16.70;99.90;;;;;;4979899;28;20520;-84
2021/09/09 01:50:52;;;;;;;;;;;16.70;99.90;;;;;;4989587;28;19926;-83
2021/09/09 01:53:18;;;;;;;;;;;16.70;99.90;;;;;;4982175;28;20016;-84
2021/09/09 01:55:45;;;;;;;;;;;16.70;99.90;;;;;;4986120;28;20376;-84
2021/09/09 01:58:12;;;;;;;;;;;16.60;99.90;;;;;;4985242;28;19927;-84
2021/09/09 02:00:40;;;;;;;;;;;16.50;99.90;;;;;;4979268;28;19926;-82
2021/09/09 02:03:06;;;;;;;;;;;16.50;99.90;;;;;;4988766;28;19934;-81
2021/09/09 02:05:33;;;;;;;;;;;16.50;99.90;;;;;;4980521;28;20028;-82
2021/09/09 02:08:00;;;;;;;;;;;16.40;99.90;;;;;;4977651;28;20009;-82
2021/09/09 02:10:26;;;;;;;;;;;16.40;99.90;;;;;;4988495;28;19930;-82
2021/09/09 02:12:53;;;;;;;;;;;16.40;99.90;;;;;;4987548;28;20377;-83
2021/09/09 02:15:20;;;;;;;;;;;16.40;99.90;;;;;;4985677;28;19933;-84
2021/09/09 02:17:48;;;;;;;;;;;16.40;99.90;;;;;;4980077;28;19926;-82
2021/09/09 02:20:15;;;;;;;;;;;16.40;99.90;;;;;;4986176;28;19962;-83
2021/09/09 02:22:41;;;;;;;;;;;16.30;99.90;;;;;;4982151;28;20305;-83
2021/09/09 02:25:08;;;;;;;;;;;16.30;99.90;;;;;;4984722;28;20012;-83
2021/09/09 02:27:35;;;;;;;;;;;16.20;99.90;;;;;;4982868;28;19926;-83
2021/09/09 02:30:02;;;;;;;;;;;16.30;99.90;;;;;;4984512;28;20029;-83
2021/09/09 02:32:28;;;;;;;;;;;16.10;99.90;;;;;;4982157;28;19933;-84
2021/09/09 02:34:56;;;;;;;;;;;16.10;99.90;;;;;;4984374;28;20018;-85
2021/09/09 02:37:23;;;;;;;;;;;16.10;99.90;;;;;;4981561;28;19926;-84
2021/09/09 02:39:50;;;;;;;;;;;16.10;99.90;;;;;;4985179;28;19932;-85
2021/09/09 02:42:16;;;;;;;;;;;16.10;99.90;;;;;;4980003;28;19929;-83
2021/09/09 02:44:43;;;;;;;;;;;16.10;99.90;;;;;;4987433;28;19926;-84
2021/09/09 02:47:10;;;;;;;;;;;16.10;99.90;;;;;;4977104;28;19926;-84
2021/09/09 02:49:36;;;;;;;;;;;16.10;99.90;;;;;;4985720;28;20033;-84
2021/09/09 02:52:05;;;;;;;;;;;16.00;99.90;;;;;;4979426;28;19932;-85
2021/09/09 02:54:32;;;;;;;;;;;15.90;99.90;;;;;;4980971;28;19926;-85
2021/09/09 02:56:59;;;;;;;;;;;16.00;99.90;;;;;;4987873;28;19926;-85
2021/09/09 02:59:25;;;;;;;;;;;16.00;99.90;;;;;;4984948;28;19934;-86
2021/09/09 03:01:52;;;;;;;;;;;16.10;99.90;;;;;;4983547;28;20008;-85
2021/09/09 03:04:19;;;;;;;;;;;16.10;99.90;;;;;;4983709;28;20016;-84
2021/09/09 03:06:45;;;;;;;;;;;16.10;99.90;;;;;;4990018;28;19926;-85
2021/09/09 03:09:13;;;;;;;;;;;16.20;99.90;;;;;;4974903;28;20361;-87
2021/09/09 03:11:40;;;;;;;;;;;16.20;99.90;;;;;;4983568;28;19926;-87
2021/09/09 03:14:07;;;;;;;;;;;16.20;99.90;;;;;;4982370;28;20024;-86
2021/09/09 03:16:34;;;;;;;;;;;16.10;99.90;;;;;;4981283;28;20012;-86
2021/09/09 03:19:00;;;;;;;;;;;16.10;99.90;;;;;;4990367;28;19944;-87
2021/09/09 03:21:27;;;;;;;;;;;16.10;99.90;;;;;;4978451;28;19974;-86
2021/09/09 03:23:54;;;;;;;;;;;16.10;99.90;;;;;;4985753;28;19934;-86
2021/09/09 03:26:22;;;;;;;;;;;16.10;99.90;;;;;;4983365;28;20348;-85
2021/09/09 03:28:48;;;;;;;;;;;16.10;99.90;;;;;;4979554;28;20300;-86
2021/09/09 03:31:15;;;;;;;;;;;16.00;99.90;;;;;;4982468;28;19926;-87
2021/09/09 03:33:42;;;;;;;;;;;16.00;99.90;;;;;;4980328;28;20441;-86
2021/09/09 03:36:09;;;;;;;;;;;15.90;99.90;;;;;;4983834;28;20017;-87
2021/09/09 03:38:35;;;;;;;;;;;15.90;99.90;;;;;;4984012;28;19926;-87
2021/09/09 03:41:02;;;;;;;;;;;15.80;99.90;;;;;;4989004;28;20397;-85
2021/09/09 03:43:30;;;;;;;;;;;15.80;99.90;;;;;;4973334;28;20671;-84
2021/09/09 03:45:57;;;;;;;;;;;15.80;99.90;;;;;;4987044;28;20392;-85
2021/09/09 03:48:24;;;;;;;;;;;15.80;99.90;;;;;;4975469;28;19926;-85
2021/09/09 03:50:50;;;;;;;;;;;15.80;99.90;;;;;;4983639;28;20416;-84
2021/09/09 03:53:17;;;;;;;;;;;15.90;99.90;;;;;;4979665;28;19961;-84
2021/09/09 03:55:44;;;;;;;;;;;16.00;99.90;;;;;;4974392;28;20016;-84
2021/09/09 03:58:11;;;;;;;;;;;16.00;99.90;;;;;;4981369;28;20377;-83
2021/09/09 04:00:39;;;;;;;;;;;16.00;99.90;;;;;;4984377;28;20305;-85
2021/09/09 04:03:05;;;;;;;;;;;16.00;99.90;;;;;;4981046;28;19926;-84
2021/09/09 04:05:32;;;;;;;;;;;16.00;99.90;;;;;;4980450;28;19969;-83
2021/09/09 04:07:59;;;;;;;;;;;15.90;99.90;;;;;;4980323;28;20241;-84
2021/09/09 04:10:26;;;;;;;;;;;15.90;99.90;;;;;;4973840;28;20386;-83
2021/09/09 04:12:52;;;;;;;;;;;15.90;99.90;;;;;;4977178;28;19930;-82
2021/09/09 04:15:19;;;;;;;;;;;15.80;99.90;;;;;;4974237;28;20296;-83
2021/09/09 04:17:47;;;;;;;;;;;15.80;99.90;;;;;;4981577;28;19932;-82
2021/09/09 04:20:14;;;;;;;;;;;15.80;99.90;;;;;;4977591;28;19988;-83
2021/09/09 04:22:40;;;;;;;;;;;15.80;99.90;;;;;;4986213;28;22266;-81
2021/09/09 04:25:08;;;;;;;;;;;15.90;99.90;;;;;;4980264;28;20017;-81
2021/09/09 04:27:34;;;;;;;;;;;16.00;99.90;;;;;;4985848;28;19976;-83
2021/09/09 04:30:01;;;;;;;;;;;16.10;99.90;;;;;;4979504;28;19930;-82
2021/09/09 04:32:28;;;;;;;;;;;16.20;99.90;;;;;;4977251;28;19937;-82
2021/09/09 04:34:56;;;;;;;;;;;16.40;99.90;;;;;;4986505;28;19969;-82
2021/09/09 04:37:22;;;;;;;;;;;16.50;99.90;;;;;;4984381;28;19926;-83
2021/09/09 04:39:49;;;;;;;;;;;16.60;99.90;;;;;;4986570;28;19932;-84
2021/09/09 04:42:16;;;;;;;;;;;16.80;99.90;;;;;;4978763;28;19926;-84
2021/09/09 04:44:43;;;;;;;;;;;16.80;99.90;;;;;;4982810;28;20037;-84
2021/09/09 04:47:09;;;;;;;;;;;16.90;99.90;;;;;;4979034;28;19953;-82
2021/09/09 04:49:36;;;;;;;;;;;16.90;99.90;;;;;;4983596;28;19925;-82
2021/09/09 04:52:04;;;;;;;;;;;16.90;99.90;;;;;;4976275;28;20017;-84
2021/09/09 04:54:31;;;;;;;;;;;17.00;99.90;;;;;;4982555;28;19980;-84
2021/09/09 04:56:58;;;;;;;;;;;16.90;99.90;;;;;;4990698;28;19926;-83
2021/09/09 04:59:24;;;;;;;;;;;17.10;99.90;;;;;;4987681;28;19964;-84
2021/09/09 05:01:51;;;;;;;;;;;17.10;99.90;;;;;;4980639;28;19926;-85
2021/09/09 05:04:19;;;;;;;;;;;17.30;99.90;;;;;;4976068;28;19973;-85
2021/09/09 05:06:46;;;;;;;;;;;17.40;99.90;;;;;;4982826;28;20021;-86
2021/09/09 05:09:14;;;;;;;;;;;17.50;99.90;;;;;;4985902;28;20299;-86
2021/09/09 05:11:40;;;;;;;;;;;17.40;99.90;;;;;;4986841;28;19934;-86
2021/09/09 05:14:07;;;;;;;;;;;17.80;99.90;;;;;;4986913;28;20396;-85
2021/09/09 05:16:34;;;;;;;;;;;17.90;99.90;;;;;;4974377;28;20384;-85
2021/09/09 05:19:00;;;;;;;;;;;18.00;99.90;;;;;;4983935;28;19926;-85
2021/09/09 05:21:27;;;;;;;;;;;18.10;99.90;;;;;;4979518;28;20018;-85
2021/09/09 05:23:54;;;;;;;;;;;18.30;99.90;;;;;;4979504;28;20065;-84
2021/09/09 05:26:22;;;;;;;;;;;18.40;99.90;;;;;;4991107;28;20385;-85
2021/09/09 05:28:49;;;;;;;;;;;18.50;99.90;;;;;;4980637;28;20440;-86
2021/09/09 05:31:15;;;;;;;;;;;18.60;99.90;;;;;;4989369;28;19980;-85
2021/09/09 05:33:42;;;;;;;;;;;18.70;99.90;;;;;;4979948;28;20350;-85
2021/09/09 05:36:09;;;;;;;;;;;18.80;99.90;;;;;;4993020;28;20019;-85
2021/09/09 05:38:36;;;;;;;;;;;18.90;99.90;;;;;;4976669;28;20375;-85
2021/09/09 05:41:02;;;;;;;;;;;19.00;99.90;;;;;;4986705;28;20004;-83
2021/09/09 05:43:30;;;;;;;;;;;19.10;99.90;;;;;;4982077;28;20017;-84
2021/09/09 05:45:57;;;;;;;;;;;19.20;99.90;;;;;;4990960;28;19926;-84
2021/09/09 05:48:24;;;;;;;;;;;19.30;99.90;;;;;;4991119;28;19977;-84
2021/09/09 05:50:51;;;;;;;;;;;19.40;99.90;;;;;;4985949;28;20009;-82
2021/09/09 05:53:17;;;;;;;;;;;19.50;99.90;;;;;;4982930;28;19973;-83
2021/09/09 05:55:44;;;;;;;;;;;19.60;99.90;;;;;;4973624;28;20008;-81
2021/09/09 05:58:10;;;;;;;;;;;19.70;99.90;;;;;;4976987;28;20005;-82
2021/09/09 06:00:39;;;;;;;;;;;19.80;99.90;;;;;;4979422;28;20020;-83
2021/09/09 06:03:05;;;;;;;;;;;19.80;99.90;;;;;;4985662;28;20056;-84
2021/09/09 06:05:34;;;;;;;;;;;19.70;99.90;;;;;;4980092;28;20371;-81
2021/09/09 06:08:01;;;;;;;;;;;19.70;99.90;;;;;;4984136;28;19968;-83
2021/09/09 06:10:28;;;;;;;;;;;19.60;99.90;;;;;;4981813;28;19926;-82
2021/09/09 06:12:54;;;;;;;;;;;19.70;99.90;;;;;;4983765;28;20381;-83
2021/09/09 06:15:21;;;;;;;;;;;19.60;99.90;;;;;;4979455;28;19926;-83
2021/09/09 06:17:49;;;;;;;;;;;19.60;99.90;;;;;;4978955;28;19980;-84
2021/09/09 06:20:17;;;;;;;;;;;19.60;99.90;;;;;;4978986;28;20460;-82
2021/09/09 06:22:43;;;;;;;;;;;19.60;99.90;;;;;;4982426;28;19930;-82
2021/09/09 06:25:11;;;;;;;;;;;19.60;99.90;;;;;;4974455;28;19984;-83
2021/09/09 06:27:38;;;;;;;;;;;19.60;99.90;;;;;;4978167;28;19964;-80
2021/09/09 06:30:05;;;;;;;;;;;19.70;99.90;;;;;;4983183;28;20417;-84
2021/09/09 06:32:32;;;;;;;;;;;19.80;99.90;;;;;;4985512;28;19930;-84
2021/09/09 06:35:01;;;;;;;;;;;19.80;99.90;;;;;;4976029;28;20025;-85
2021/09/09 06:37:28;;;;;;;;;;;19.90;99.90;;;;;;4987304;28;19930;-85
2021/09/09 06:39:54;;;;;;;;;;;19.90;99.90;;;;;;4986893;28;19943;-83
2021/09/09 06:42:22;;;;;;;;;;;20.00;99.90;;;;;;4988870;28;20274;-84
2021/09/09 06:44:49;;;;;;;;;;;20.10;99.90;;;;;;4989316;28;20388;-84
2021/09/09 06:47:16;;;;;;;;;;;20.20;99.90;;;;;;4987680;28;19926;-83
2021/09/09 06:49:43;;;;;;;;;;;20.10;99.90;;;;;;4989482;28;20461;-83
2021/09/09 06:52:11;;;;;;;;;;;20.20;99.90;;;;;;4986005;28;19926;-79
2021/09/09 06:54:37;;;;;;;;;;;20.20;99.90;;;;;;4992874;28;19980;-81
2021/09/09 06:57:05;;;;;;;;;;;20.20;99.90;;;;;;4980356;28;19942;-81
2021/09/09 06:59:32;;;;;;;;;;;20.20;99.90;;;;;;4990624;28;20047;-85
2021/09/09 07:01:58;;;;;;;;;;;20.20;99.90;;;;;;4984251;28;19985;-84
2021/09/09 07:04:25;;;;;;;;;;;20.10;99.90;;;;;;4987445;28;20087;-85
2021/09/09 07:06:52;;;;;;;;;;;20.20;99.90;;;;;;4992987;28;19930;-86
2021/09/09 07:09:20;;;;;;;;;;;20.20;99.90;;;;;;4991787;28;19926;-86
2021/09/09 07:11:46;;;;;;;;;;;20.20;99.90;;;;;;4978362;28;20409;-86
2021/09/09 07:14:13;;;;;;;;;;;20.20;99.90;;;;;;4987359;28;20404;-85
2021/09/09 07:16:40;;;;;;;;;;;20.30;99.90;;;;;;4981667;28;20411;-84
2021/09/09 07:19:06;;;;;;;;;;;20.40;99.90;;;;;;4992185;28;19957;-85
2021/09/09 07:21:33;;;;;;;;;;;20.60;99.90;;;;;;4978392;28;20357;-84
2021/09/09 07:24:00;;;;;;;;;;;22.00;99.90;;;;;;4987382;28;19930;-82
2021/09/09 07:26:30;;;;;;;;;;;23.70;99.90;;;;;;4980984;28;19934;-77
2021/09/09 07:28:56;;;;;;;;;;;24.10;99.90;;;;;;4986898;28;20308;-79
2021/09/09 07:31:23;;;;;;;;;;;25.60;99.90;;;;;;4974040;28;19945;-78
2021/09/09 07:33:50;;;;;;;;;;;26.80;99.90;;;;;;4985602;28;19959;-86
2021/09/09 07:36:16;;;;;;;;;;;27.70;99.90;;;;;;4978328;28;19929;-82
2021/09/09 07:38:43;;;;;;;;;;;27.70;99.90;;;;;;4985246;28;19926;-83
2021/09/09 07:41:10;;;;;;;;;;;28.00;99.90;;;;;;4986117;28;20403;-85
2021/09/09 07:43:39;;;;;;;;;;;27.40;99.90;;;;;;4992655;28;20021;-81
2021/09/09 07:46:05;;;;;;;;;;;27.00;99.90;;;;;;4985168;28;19930;-86
2021/09/09 07:48:32;;;;;;;;;;;27.00;99.90;;;;;;4987068;28;19926;-82
2021/09/09 07:50:59;;;;;;;;;;;26.60;99.90;;;;;;4988592;28;20160;-83
2021/09/09 07:53:25;;;;;;;;;;;26.20;99.90;;;;;;4985188;28;20338;-83
2021/09/09 07:55:52;;;;;;;;;;;25.80;99.90;;;;;;4989328;28;20328;-80
2021/09/09 07:58:19;;;;;;;;;;;26.80;99.90;;;;;;4974514;28;19925;-83
2021/09/09 08:00:47;;;;;;;;;;;26.90;99.90;;;;;;4978299;28;19925;-81
2021/09/09 08:03:13;;;;;;;;;;;26.10;99.90;;;;;;4986225;28;19965;-80
2021/09/09 08:05:40;;;;;;;;;;;27.20;99.90;;;;;;4982043;28;20025;-82
2021/09/09 08:08:07;;;;;;;;;;;28.10;99.90;;;;;;4981706;28;20108;-79
2021/09/09 08:10:34;;;;;;;;;;;28.50;99.90;;;;;;4977537;28;19937;-82
2021/09/09 08:13:00;;;;;;;;;;;29.00;99.90;;;;;;4981462;28;20012;-76
2021/09/09 08:15:27;;;;;;;;;;;30.20;99.90;;;;;;4978945;28;19932;-79
2021/09/09 08:17:55;;;;;;;;;;;30.90;99.90;;;;;;4982648;28;20056;-78
2021/09/09 08:20:23;;;;;;;;;;;31.80;99.80;;;;;;4982230;28;20041;-78
2021/09/09 08:22:50;;;;;;;;;;;32.00;98.40;;;;;;4985758;28;19926;-77
2021/09/09 08:25:17;;;;;;;;;;;32.30;97.20;;;;;;4979965;28;19926;-70
2021/09/09 08:27:44;;;;;;;;;;;32.40;96.20;;;;;;4980384;28;19977;-78
2021/09/09 08:30:10;;;;;;;;;;;32.30;94.80;;;;;;4981135;28;19926;-78
2021/09/09 08:32:37;;;;;;;;;;;31.90;95.90;;;;;;4977890;28;19926;-79
2021/09/09 08:35:06;;;;;;;;;;;32.00;95.00;;;;;;4978585;28;20309;-78
2021/09/09 08:37:33;;;;;;;;;;;31.10;96.20;;;;;;4985778;28;20015;-79
2021/09/09 08:40:00;;;;;;;;;;;30.70;97.20;;;;;;4987944;28;20025;-78
2021/09/09 08:42:26;;;;;;;;;;;30.90;97.30;;;;;;4979267;28;19991;-78
2021/09/09 08:44:53;;;;;;;;;;;30.70;97.20;;;;;;4980500;28;19932;-78
2021/09/09 08:47:21;;;;;;;;;;;30.10;98.00;;;;;;4990083;28;19932;-76
2021/09/09 08:49:47;;;;;;;;;;;29.50;99.10;;;;;;4981975;28;20052;-76
2021/09/09 08:52:16;;;;;;;;;;;29.10;99.90;;;;;;4987186;28;19936;-80
2021/09/09 08:54:42;;;;;;;;;;;29.10;99.90;;;;;;4978436;28;19940;-76
2021/09/09 08:57:09;;;;;;;;;;;29.60;99.90;;;;;;4975916;28;20428;-78
2021/09/09 08:59:36;;;;;;;;;;;30.20;98.60;;;;;;4979095;28;19925;-79
2021/09/09 09:02:05;;;;;;;;;;;30.50;98.40;;;;;;4981951;28;19938;-82
2021/09/09 09:04:32;;;;;;;;;;;31.00;97.60;;;;;;4977795;28;19932;-82
2021/09/09 09:06:59;;;;;;;;;;;30.90;96.80;;;;;;4979064;28;20016;-86
2021/09/09 09:09:32;;;;;;;;;;;30.70;97.30;;;;;;4988978;28;19937;-83
2021/09/09 09:11:58;;;;;;;;;;;29.40;99.00;;;;;;4977267;28;19933;-88
2021/09/09 09:14:26;;;;;;;;;;;28.70;99.90;;;;;;4979738;28;20335;-76
2021/09/09 09:16:54;;;;;;;;;;;28.70;99.90;;;;;;4978146;28;19933;-76
2021/09/09 09:19:22;;;;;;;;;;;28.80;99.90;;;;;;4980995;28;20293;-80
2021/09/09 09:21:51;;;;;;;;;;;28.20;99.90;;;;;;4974873;28;20764;-79
2021/09/09 09:24:19;;;;;;;;;;;27.20;99.90;;;;;;4986371;28;20325;-82
2021/09/09 09:27:06;;;;;;;;;;;26.60;99.90;;;;;;4980768;28;20008;-79
2021/09/09 09:29:33;;;;;;;;;;;26.50;99.90;;;;;;4971476;28;20020;-76
2021/09/09 09:32:10;;;;;;;;;;;27.50;99.90;;;;;;4971235;28;20381;-79
2021/09/09 09:34:36;;;;;;;;;;;27.70;99.90;;;;;;4982337;28;19926;-78
2021/09/09 09:37:03;;;;;;;;;;;27.30;99.90;;;;;;4982503;28;19930;-81
2021/09/09 09:39:30;;;;;;;;;;;26.90;99.90;;;;;;4977830;28;19967;-81
2021/09/09 09:41:58;;;;;;;;;;;26.70;99.90;;;;;;4985900;28;20021;-81
2021/09/09 09:44:29;;;;;;;;;;;27.10;99.90;;;;;;4973622;28;19956;-81
2021/09/09 09:47:06;;;;;;;;;;;27.40;99.90;;;;;;4977606;28;20020;-82
2021/09/09 09:49:33;;;;;;;;;;;27.20;99.90;;;;;;4974440;28;20363;-83
2021/09/09 09:52:00;;;;;;;;;;;26.90;99.90;;;;;;4975746;28;19933;-82
2021/09/09 09:54:28;;;;;;;;;;;26.90;99.90;;;;;;4979593;28;20282;-81
2021/09/09 09:56:55;;;;;;;;;;;26.70;99.90;;;;;;4982061;28;19930;-82
2021/09/09 09:59:22;;;;;;;;;;;26.60;99.90;;;;;;4983820;28;19976;-87
2021/09/09 10:01:51;;;;;;;;;;;26.70;99.90;;;;;;4987418;28;20161;-83
2021/09/09 10:04:20;;;;;;;;;;;26.90;99.90;;;;;;4992156;28;19965;-83
2021/09/09 10:06:48;;;;;;;;;;;27.00;99.90;;;;;;4983714;28;20180;-83
2021/09/09 10:09:14;;;;;;;;;;;27.00;99.90;;;;;;4989834;28;19981;-82
2021/09/09 10:11:41;;;;;;;;;;;26.90;99.90;;;;;;4979680;28;20021;-85
2021/09/09 10:14:08;;;;;;;;;;;26.80;99.90;;;;;;4991965;28;19965;-85
2021/09/09 10:16:37;;;;;;;;;;;26.50;99.90;;;;;;4996879;28;19933;-83
2021/09/09 10:19:05;;;;;;;;;;;26.10;99.90;;;;;;5000200;28;19966;-85
2021/09/09 10:21:41;;;;;;;;;;;25.80;99.90;;;;;;5004271;28;19965;-85
2021/09/09 10:24:13;;;;;;;;;;;26.20;99.90;;;;;;5006719;28;20002;-85
2021/09/09 10:26:39;;;;;;;;;;;26.50;99.90;;;;;;4990086;28;19926;-84
2021/09/09 10:29:09;;;;;;;;;;;26.60;99.90;;;;;;4992419;28;20412;-80
2021/09/09 10:31:40;;;;;;;;;;;26.40;99.90;;;;;;4983768;28;19930;-83
2021/09/09 10:34:09;;;;;;;;;;;26.20;99.90;;;;;;4983667;28;20320;-84
2021/09/09 10:36:40;;;;;;;;;;;26.20;99.90;;;;;;4988661;28;21565;-80
2021/09/09 10:39:08;;;;;;;;;;;26.20;99.90;;;;;;4984804;28;20029;-79
2021/09/09 10:41:34;;;;;;;;;;;26.20;99.90;;;;;;4982763;28;20452;-81
2021/09/09 10:44:02;;;;;;;;;;;26.20;99.90;;;;;;4987960;28;19932;-85
2021/09/09 10:46:32;;;;;;;;;;;26.40;99.90;;;;;;4982648;28;19927;-84
2021/09/09 10:49:14;;;;;;;;;;;26.40;99.90;;;;;;4983208;28;20057;-86
2021/09/09 10:51:56;;;;;;;;;;;26.60;99.90;;;;;;4985940;28;20388;-83
2021/09/09 10:54:22;;;;;;;;;;;26.50;99.90;;;;;;4973719;28;20342;-83
2021/09/09 10:56:49;;;;;;;;;;;26.20;99.90;;;;;;4995801;28;20058;-84
2021/09/09 10:59:19;;;;;;;;;;;26.10;99.90;;;;;;5001353;28;19936;-77
2021/09/09 11:01:46;;;;;;;;;;;26.10;99.90;;;;;;5005984;28;19926;-85
2021/09/09 11:04:28;;;;;;;;;;;26.20;99.90;;;;;;4998607;28;22610;-82
2021/09/09 11:06:55;;;;;;;;;;;26.50;99.90;;;;;;4977738;28;19926;-86
2021/09/09 11:09:22;;;;;;;;;;;27.00;99.90;;;;;;4985586;28;19929;-83
2021/09/09 11:11:56;;;;;;;;;;;27.10;99.90;;;;;;4985726;28;19926;-79
2021/09/09 11:14:23;;;;;;;;;;;26.60;99.90;;;;;;4988388;28;19925;-79
2021/09/09 11:16:50;;;;;;;;;;;27.10;99.90;;;;;;4980761;28;19980;-80
2021/09/09 11:19:20;;;;;;;;;;;27.10;99.90;;;;;;4988855;28;20436;-79
2021/09/09 11:21:48;;;;;;;;;;;26.70;99.90;;;;;;4985138;28;20406;-79
2021/09/09 11:24:15;;;;;;;;;;;26.50;99.90;;;;;;4980323;28;20017;-79
2021/09/09 11:26:43;;;;;;;;;;;26.50;99.90;;;;;;4985440;28;19934;-80
2021/09/09 11:29:09;;;;;;;;;;;26.70;99.90;;;;;;4980587;28;20001;-77
2021/09/09 11:31:45;;;;;;;;;;;26.70;99.90;;;;;;4979046;28;19925;-78
2021/09/09 11:34:12;;;;;;;;;;;26.80;99.90;;;;;;4973898;28;19926;-74
2021/09/09 11:36:39;;;;;;;;;;;26.70;99.90;;;;;;4976310;28;19937;-83
2021/09/09 11:39:07;;;;;;;;;;;26.80;99.90;;;;;;4979294;28;19932;-82
2021/09/09 11:41:35;;;;;;;;;;;26.80;99.90;;;;;;4980490;28;19926;-84
2021/09/09 11:44:03;;;;;;;;;;;27.10;99.90;;;;;;4985999;28;19926;-80
2021/09/09 11:46:31;;;;;;;;;;;27.20;99.90;;;;;;4990225;28;19930;-80
2021/09/09 11:48:58;;;;;;;;;;;27.50;99.90;;;;;;4983276;28;19926;-80
2021/09/09 11:51:36;;;;;;;;;;;27.60;99.90;;;;;;4980262;28;20021;-78
2021/09/09 11:54:03;;;;;;;;;;;27.10;99.90;;;;;;4979238;28;19926;-79
2021/09/09 11:56:31;;;;;;;;;;;26.80;99.90;;;;;;4984291;28;20026;-83
2021/09/09 11:59:01;;;;;;;;;;;26.60;99.90;;;;;;4980284;28;20377;-79
2021/09/09 12:01:29;;;;;;;;;;;26.70;99.90;;;;;;4981451;28;20004;-82
2021/09/09 12:03:57;;;;;;;;;;;26.80;99.90;;;;;;4981195;28;19972;-82
2021/09/09 12:06:24;;;;;;;;;;;26.60;99.90;;;;;;4975967;28;19936;-82
2021/09/09 12:08:51;;;;;;;;;;;26.90;99.90;;;;;;4988908;28;19938;-81
2021/09/09 12:11:17;;;;;;;;;;;27.00;99.90;;;;;;4979610;28;19932;-79
2021/09/09 12:13:46;;;;;;;;;;;27.10;99.90;;;;;;4984495;28;20028;-79
2021/09/09 12:16:13;;;;;;;;;;;26.90;99.90;;;;;;4980252;28;20036;-78
2021/09/09 12:18:40;;;;;;;;;;;26.60;99.90;;;;;;4980688;28;19926;-82
2021/09/09 12:21:07;;;;;;;;;;;26.60;99.90;;;;;;4978124;28;19926;-73
2021/09/09 12:23:34;;;;;;;;;;;26.80;99.90;;;;;;4981828;28;20365;-81
2021/09/09 12:26:13;;;;;;;;;;;27.00;99.90;;;;;;4984261;28;20008;-80
2021/09/09 12:28:40;;;;;;;;;;;27.10;99.90;;;;;;4988128;28;20020;-81
2021/09/09 12:31:08;;;;;;;;;;;27.20;99.90;;;;;;4976685;28;19929;-80
2021/09/09 12:33:37;;;;;;;;;;;27.50;99.90;;;;;;4985067;28;20377;-80
2021/09/09 12:36:06;;;;;;;;;;;27.60;99.90;;;;;;4977322;28;19933;-84
2021/09/09 12:38:33;;;;;;;;;;;27.40;99.90;;;;;;4977595;28;20338;-77
2021/09/09 12:41:00;;;;;;;;;;;27.20;99.90;;;;;;4985956;28;20012;-85
2021/09/09 12:43:28;;;;;;;;;;;27.30;99.90;;;;;;4987416;28;20021;-83
2021/09/09 12:45:56;;;;;;;;;;;27.40;99.90;;;;;;4978208;28;20021;-86
2021/09/09 12:48:24;;;;;;;;;;;27.50;99.90;;;;;;4985586;28;19925;-83
2021/09/09 12:50:51;;;;;;;;;;;27.50;99.90;;;;;;4973755;28;19930;-80
2021/09/09 12:53:18;;;;;;;;;;;27.40;99.90;;;;;;4980816;28;19925;-85
2021/09/09 12:55:45;;;;;;;;;;;27.50;99.90;;;;;;4989493;28;20017;-86
2021/09/09 12:58:12;;;;;;;;;;;27.60;99.90;;;;;;4980220;28;20029;-83
2021/09/09 13:00:39;;;;;;;;;;;27.50;99.90;;;;;;4980238;28;20310;-82
2021/09/09 13:03:05;;;;;;;;;;;27.40;99.90;;;;;;4988881;28;20017;-80
2021/09/09 13:05:33;;;;;;;;;;;27.80;99.90;;;;;;4974662;28;19925;-81
2021/09/09 13:08:00;;;;;;;;;;;28.00;99.90;;;;;;4983378;28;20396;-81
2021/09/09 13:10:26;;;;;;;;;;;28.10;99.90;;;;;;4983347;28;19936;-78
2021/09/09 13:12:55;;;;;;;;;;;28.00;99.90;;;;;;4983567;28;19934;-80
2021/09/09 13:15:22;;;;;;;;;;;27.40;99.90;;;;;;4981361;28;20420;-80
2021/09/09 13:17:50;;;;;;;;;;;27.50;99.90;;;;;;4981077;28;20823;-83
2021/09/09 13:20:17;;;;;;;;;;;27.70;99.90;;;;;;4977259;28;19992;-83
2021/09/09 13:22:45;;;;;;;;;;;27.90;99.90;;;;;;4980303;28;19926;-85
2021/09/09 13:25:12;;;;;;;;;;;27.80;99.90;;;;;;4981804;28;20008;-87
2021/09/09 13:27:38;;;;;;;;;;;28.00;99.90;;;;;;4981312;28;19996;-83
2021/09/09 13:30:06;;;;;;;;;;;28.00;99.90;;;;;;4975810;28;19926;-86
2021/09/09 13:32:32;;;;;;;;;;;28.10;99.90;;;;;;4979177;28;20005;-84
2021/09/09 13:34:59;;;;;;;;;;;28.20;99.90;;;;;;4983542;28;19932;-81
2021/09/09 13:37:26;;;;;;;;;;;28.20;99.90;;;;;;4976989;28;20020;-81
2021/09/09 13:39:54;;;;;;;;;;;28.20;99.90;;;;;;4980418;28;19961;-78
2021/09/09 13:42:21;;;;;;;;;;;28.20;99.90;;;;;;4974204;28;20028;-80
2021/09/09 13:44:47;;;;;;;;;;;28.40;99.90;;;;;;4994327;28;19940;-81
2021/09/09 13:47:14;;;;;;;;;;;28.50;99.90;;;;;;4988038;28;20269;-81
2021/09/09 13:49:41;;;;;;;;;;;28.60;99.90;;;;;;4983080;28;20581;-80
2021/09/09 13:52:07;;;;;;;;;;;28.80;99.90;;;;;;4981821;28;19926;-78
2021/09/09 13:54:34;;;;;;;;;;;28.50;99.90;;;;;;4986683;28;20031;-79
2021/09/09 13:57:02;;;;;;;;;;;28.50;99.90;;;;;;4985053;28;20000;-78
2021/09/09 13:59:31;;;;;;;;;;;28.40;99.90;;;;;;4986930;28;20369;-83
2021/09/09 14:01:57;;;;;;;;;;;28.10;99.90;;;;;;4983333;28;19926;-82
2021/09/09 14:04:24;;;;;;;;;;;28.00;99.90;;;;;;4976666;28;20363;-81
2021/09/09 14:06:51;;;;;;;;;;;27.80;99.90;;;;;;4986991;28;20021;-82
2021/09/09 14:09:18;;;;;;;;;;;27.50;99.90;;;;;;4985111;28;19926;-83
2021/09/09 14:11:44;;;;;;;;;;;27.50;99.90;;;;;;4986747;28;19989;-82
2021/09/09 14:14:12;;;;;;;;;;;27.60;99.90;;;;;;4979747;28;19958;-82
2021/09/09 14:16:40;;;;;;;;;;;27.50;99.90;;;;;;4980156;28;19980;-81